createdAt,value
2017-01-04T00:00:09.677Z,66.95
2017-01-04T00:00:37.841Z,66.85
2017-01-04T00:01:05.688Z,66.95
2017-01-04T00:01:33.552Z,66.75
2017-01-04T00:02:01.332Z,66.85
2017-01-04T00:02:29.127Z,66.95
2017-01-04T00:02:57.077Z,66.95
2017-01-04T00:03:24.834Z,67.05
2017-01-04T00:03:52.592Z,67.14
2017-01-04T00:04:20.481Z,67.34
2017-01-04T00:04:48.289Z,67.63
2017-01-04T00:05:16.293Z,67.44
2017-01-04T00:05:44.536Z,67.14
2017-01-04T00:06:12.533Z,67.53
2017-01-04T00:06:40.405Z,67.44
2017-01-04T00:07:08.241Z,67.24
2017-01-04T00:07:36.032Z,67.53
2017-01-04T00:08:03.858Z,67.63
2017-01-04T00:08:31.669Z,67.05
2017-01-04T00:08:59.510Z,67.24
2017-01-04T00:09:27.274Z,67.34
2017-01-04T00:09:55.076Z,67.14
2017-01-04T00:10:23.046Z,67.82
2017-01-04T00:10:51.084Z,67.63
2017-01-04T00:11:18.897Z,67.14
2017-01-04T00:11:46.824Z,67.34
2017-01-04T00:12:14.712Z,68.02
2017-01-04T00:12:42.486Z,68.02
2017-01-04T00:13:10.324Z,67.72
2017-01-04T00:13:38.304Z,67.82
2017-01-04T00:14:06.206Z,67.82
2017-01-04T00:14:34.070Z,67.92
2017-01-04T00:15:01.875Z,67.92
2017-01-04T00:15:29.655Z,67.63
2017-01-04T00:15:57.692Z,67.92
2017-01-04T00:16:25.506Z,67.82
2017-01-04T00:16:53.374Z,67.92
2017-01-04T00:17:21.248Z,68.21
2017-01-04T00:17:49.192Z,68.21
2017-01-04T00:18:16.980Z,68.6
2017-01-04T00:18:44.794Z,68.4
2017-01-04T00:19:12.593Z,68.3
2017-01-04T00:19:40.484Z,68.3
2017-01-04T00:20:08.275Z,67.92
2017-01-04T00:20:36.337Z,67.44
2017-01-04T00:21:04.126Z,67.34
2017-01-04T00:21:31.985Z,67.53
2017-01-04T00:21:59.756Z,67.92
2017-01-04T00:22:27.614Z,68.4
2017-01-04T00:22:55.455Z,67.92
2017-01-04T00:23:23.405Z,67.92
2017-01-04T00:23:51.179Z,68.12
2017-01-04T00:24:18.950Z,68.02
2017-01-04T00:24:46.735Z,68.21
2017-01-04T00:25:14.543Z,68.21
2017-01-04T00:25:42.593Z,68.21
2017-01-04T00:26:10.385Z,68.3
2017-01-04T00:26:38.237Z,68.21
2017-01-04T00:27:06.006Z,68.21
2017-01-04T00:27:33.813Z,67.24
2017-01-04T00:28:01.606Z,66.95
2017-01-04T00:28:29.437Z,67.05
2017-01-04T00:28:57.278Z,67.05
2017-01-04T00:29:25.141Z,66.95
2017-01-04T00:29:53.011Z,66.66
2017-01-04T00:30:20.781Z,65.79
2017-01-04T00:30:48.881Z,65.98
2017-01-04T00:31:16.774Z,66.14
2017-01-04T00:31:44.650Z,66.08
2017-01-04T00:32:12.483Z,66.17
2017-01-04T00:32:40.252Z,66.08
2017-01-04T00:33:08.157Z,65.85
2017-01-04T00:33:36.045Z,65.69
2017-01-04T00:34:03.839Z,66.05
2017-01-04T00:34:31.684Z,66.14
2017-01-04T00:34:59.606Z,66.34
2017-01-04T00:35:27.412Z,66.24
2017-01-04T00:35:55.533Z,66.14
2017-01-04T00:36:23.300Z,66.53
2017-01-04T00:36:51.246Z,66.24
2017-01-04T00:37:19.110Z,66.43
2017-01-04T00:37:46.944Z,66.34
2017-01-04T00:38:14.836Z,66.72
2017-01-04T00:38:42.773Z,66.24
2017-01-04T00:39:10.655Z,66.53
2017-01-04T00:39:38.436Z,66.92
2017-01-04T00:40:06.390Z,66.72
2017-01-04T00:40:34.156Z,66.82
2017-01-04T00:41:02.195Z,67.02
2017-01-04T00:41:30.048Z,66.92
2017-01-04T00:41:57.846Z,66.92
2017-01-04T00:42:25.686Z,66.63
2017-01-04T00:42:53.539Z,66.82
2017-01-04T00:43:21.383Z,66.88
2017-01-04T00:43:49.264Z,67.46
2017-01-04T00:44:17.106Z,67.27
2017-01-04T00:44:44.939Z,67.27
2017-01-04T00:45:12.698Z,67.56
2017-01-04T00:45:40.499Z,67.3
2017-01-04T00:46:08.595Z,67.08
2017-01-04T00:46:36.359Z,67.66
2017-01-04T00:47:04.190Z,67.66
2017-01-04T00:47:32.017Z,67.27
2017-01-04T00:47:59.811Z,67.27
2017-01-04T00:48:27.707Z,67.46
2017-01-04T00:48:55.589Z,67.37
2017-01-04T00:49:23.320Z,67.66
2017-01-04T00:49:51.117Z,67.76
2017-01-04T00:50:18.972Z,67.76
2017-01-04T00:50:46.851Z,67.76
2017-01-04T00:51:14.991Z,67.76
2017-01-04T00:51:42.850Z,67.85
2017-01-04T00:52:10.705Z,67.79
2017-01-04T00:52:38.531Z,67.79
2017-01-04T00:53:06.469Z,67.18
2017-01-04T00:53:34.367Z,67.79
2017-01-04T00:54:02.296Z,67.46
2017-01-04T00:54:30.109Z,67.6
2017-01-04T00:54:58.245Z,67.95
2017-01-04T00:55:26.040Z,68.15
2017-01-04T00:55:53.811Z,68.15
2017-01-04T00:56:21.917Z,68.05
2017-01-04T00:56:49.712Z,68.15
2017-01-04T00:57:17.470Z,69.11
2017-01-04T00:57:45.298Z,69.01
2017-01-04T00:58:13.081Z,68.63
2017-01-04T00:58:40.969Z,68.53
2017-01-04T00:59:08.746Z,68.53
2017-01-04T00:59:36.596Z,68.91
2017-01-04T01:00:04.504Z,68.63
2017-01-04T01:00:32.386Z,68.85
2017-01-04T01:01:00.445Z,68.73
2017-01-04T01:01:28.371Z,68.82
2017-01-04T01:01:56.292Z,68.76
2017-01-04T01:02:24.139Z,69.15
2017-01-04T01:02:51.899Z,68.37
2017-01-04T01:03:19.721Z,68.08
2017-01-04T01:03:47.530Z,68.08
2017-01-04T01:04:15.364Z,68.08
2017-01-04T01:04:43.199Z,68.85
2017-01-04T01:05:11.180Z,68.95
2017-01-04T01:05:39.033Z,68.76
2017-01-04T01:06:07.071Z,68.76
2017-01-04T01:06:34.869Z,68.76
2017-01-04T01:07:02.739Z,68.76
2017-01-04T01:07:30.614Z,69.05
2017-01-04T01:07:58.430Z,68.76
2017-01-04T01:08:26.270Z,68.47
2017-01-04T01:08:54.147Z,69.43
2017-01-04T01:09:21.995Z,69.31
2017-01-04T01:09:49.791Z,69.89
2017-01-04T01:10:17.745Z,69.98
2017-01-04T01:10:45.570Z,69.79
2017-01-04T01:11:13.582Z,69.69
2017-01-04T01:11:41.352Z,70.27
2017-01-04T01:12:09.219Z,70.37
2017-01-04T01:12:37.005Z,70.27
2017-01-04T01:13:04.853Z,69.69
2017-01-04T01:13:32.672Z,69.4
2017-01-04T01:14:00.495Z,69.59
2017-01-04T01:14:28.301Z,69.69
2017-01-04T01:14:56.099Z,69.31
2017-01-04T01:15:24.046Z,69.89
2017-01-04T01:15:51.917Z,69.98
2017-01-04T01:16:19.938Z,70.18
2017-01-04T01:16:47.782Z,70.08
2017-01-04T01:17:15.595Z,70.37
2017-01-04T01:17:43.370Z,69.98
2017-01-04T01:18:11.283Z,69.79
2017-01-04T01:18:39.209Z,69.89
2017-01-04T01:19:06.985Z,70.47
2017-01-04T01:19:34.919Z,69.79
2017-01-04T01:20:02.801Z,70.27
2017-01-04T01:20:30.610Z,71.04
2017-01-04T01:20:58.369Z,70.66
2017-01-04T01:21:26.519Z,70.08
2017-01-04T01:21:54.412Z,70.11
2017-01-04T01:22:22.169Z,69.98
2017-01-04T01:22:49.926Z,69.79
2017-01-04T01:23:17.688Z,69.82
2017-01-04T01:23:45.605Z,69.98
2017-01-04T01:24:13.427Z,70.21
2017-01-04T01:24:41.193Z,70.27
2017-01-04T01:25:09.025Z,70.4
2017-01-04T01:25:36.861Z,70.5
2017-01-04T01:26:04.720Z,70.11
2017-01-04T01:26:32.709Z,70.31
2017-01-04T01:27:00.507Z,70.31
2017-01-04T01:27:28.323Z,70.11
2017-01-04T01:27:56.089Z,70.21
2017-01-04T01:28:23.937Z,70.01
2017-01-04T01:28:51.793Z,70.21
2017-01-04T01:29:19.617Z,70.01
2017-01-04T01:29:47.431Z,70.11
2017-01-04T01:30:15.197Z,70.08
2017-01-04T01:30:43.080Z,70.27
2017-01-04T01:31:10.914Z,70.21
2017-01-04T01:31:39.011Z,70.31
2017-01-04T01:32:06.879Z,70.21
2017-01-04T01:32:34.741Z,70.4
2017-01-04T01:33:02.663Z,70.4
2017-01-04T01:33:30.454Z,70.01
2017-01-04T01:33:58.323Z,69.92
2017-01-04T01:34:26.199Z,69.53
2017-01-04T01:34:54.002Z,69.53
2017-01-04T01:35:21.851Z,69.43
2017-01-04T01:35:49.736Z,69.34
2017-01-04T01:36:17.861Z,69.82
2017-01-04T01:36:45.644Z,69.73
2017-01-04T01:37:13.448Z,69.73
2017-01-04T01:37:41.237Z,70.31
2017-01-04T01:38:09.029Z,70.31
2017-01-04T01:38:36.874Z,70.11
2017-01-04T01:39:04.685Z,69.82
2017-01-04T01:39:32.617Z,69.82
2017-01-04T01:40:00.455Z,69.82
2017-01-04T01:40:28.251Z,70.01
2017-01-04T01:40:56.034Z,69.82
2017-01-04T01:41:24.060Z,69.82
2017-01-04T01:41:51.976Z,70.01
2017-01-04T01:42:19.701Z,70.11
2017-01-04T01:42:47.525Z,69.82
2017-01-04T01:43:15.411Z,69.82
2017-01-04T01:43:43.230Z,70.31
2017-01-04T01:44:10.992Z,70.4
2017-01-04T01:44:38.851Z,70.79
2017-01-04T01:45:06.676Z,70.89
2017-01-04T01:45:34.509Z,70.79
2017-01-04T01:46:02.260Z,70.89
2017-01-04T01:46:30.296Z,70.7
2017-01-04T01:46:58.063Z,70.79
2017-01-04T01:47:26.002Z,70.98
2017-01-04T01:47:53.857Z,70.79
2017-01-04T01:48:21.682Z,70.98
2017-01-04T01:48:49.493Z,70.31
2017-01-04T01:49:17.321Z,70.89
2017-01-04T01:49:45.154Z,70.5
2017-01-04T01:50:12.950Z,70.79
2017-01-04T01:50:40.821Z,70.7
2017-01-04T01:51:08.649Z,70.5
2017-01-04T01:51:36.715Z,70.5
2017-01-04T01:52:04.560Z,70.7
2017-01-04T01:52:32.372Z,70.89
2017-01-04T01:53:00.156Z,70.89
2017-01-04T01:53:28.034Z,70.4
2017-01-04T01:53:55.834Z,70.6
2017-01-04T01:54:23.666Z,70.7
2017-01-04T01:54:51.579Z,70.31
2017-01-04T01:55:19.410Z,70.31
2017-01-04T01:55:47.192Z,70.6
2017-01-04T01:56:15.129Z,71.08
2017-01-04T01:56:43.106Z,70.95
2017-01-04T01:57:11.006Z,70.27
2017-01-04T01:57:38.787Z,70.79
2017-01-04T01:58:06.760Z,70.66
2017-01-04T01:58:34.566Z,70.86
2017-01-04T01:59:02.364Z,70.95
2017-01-04T01:59:30.117Z,70.66
2017-01-04T01:59:58.060Z,70.76
2017-01-04T02:00:25.925Z,71.08
2017-01-04T02:00:53.773Z,71.56
2017-01-04T02:01:21.640Z,71.47
2017-01-04T02:01:49.649Z,71.53
2017-01-04T02:02:17.523Z,71.34
2017-01-04T02:02:45.351Z,71.53
2017-01-04T02:03:13.129Z,71.56
2017-01-04T02:03:40.906Z,71.08
2017-01-04T02:04:08.667Z,71.44
2017-01-04T02:04:36.441Z,71.86
2017-01-04T02:05:04.349Z,71.37
2017-01-04T02:05:32.141Z,71.37
2017-01-04T02:05:59.983Z,71.56
2017-01-04T02:06:27.894Z,71.53
2017-01-04T02:06:55.927Z,71.34
2017-01-04T02:07:23.698Z,71.37
2017-01-04T02:07:51.552Z,71.37
2017-01-04T02:08:19.303Z,71.37
2017-01-04T02:08:47.181Z,71.56
2017-01-04T02:09:15.082Z,71.66
2017-01-04T02:09:42.874Z,71.66
2017-01-04T02:10:10.681Z,71.66
2017-01-04T02:10:38.519Z,71.56
2017-01-04T02:11:06.307Z,72.05
2017-01-04T02:11:34.261Z,72.15
2017-01-04T02:12:02.108Z,71.72
2017-01-04T02:12:29.998Z,71.82
2017-01-04T02:12:57.885Z,71.72
2017-01-04T02:13:25.696Z,71.92
2017-01-04T02:13:53.475Z,72.21
2017-01-04T02:14:21.249Z,72.3
2017-01-04T02:14:49.055Z,72.21
2017-01-04T02:15:16.898Z,72.3
2017-01-04T02:15:44.911Z,72.24
2017-01-04T02:16:12.684Z,72.83
2017-01-04T02:16:40.798Z,72.69
2017-01-04T02:17:08.657Z,72.69
2017-01-04T02:17:36.498Z,72.89
2017-01-04T02:18:04.292Z,72.79
2017-01-04T02:18:32.205Z,72.83
2017-01-04T02:18:59.960Z,72.92
2017-01-04T02:19:27.784Z,72.89
2017-01-04T02:19:55.605Z,73.18
2017-01-04T02:20:23.486Z,72.69
2017-01-04T02:20:51.356Z,72.24
2017-01-04T02:21:19.187Z,72.21
2017-01-04T02:21:47.207Z,72.73
2017-01-04T02:22:15.049Z,72.11
2017-01-04T02:22:42.775Z,72.11
2017-01-04T02:23:10.675Z,72.3
2017-01-04T02:23:38.472Z,72.34
2017-01-04T02:24:06.368Z,72.4
2017-01-04T02:24:34.171Z,73.27
2017-01-04T02:25:02.027Z,72.89
2017-01-04T02:25:29.862Z,72.69
2017-01-04T02:25:57.728Z,72.69
2017-01-04T02:26:25.510Z,72.79
2017-01-04T02:26:53.490Z,72.89
2017-01-04T02:27:21.309Z,72.69
2017-01-04T02:27:49.103Z,73.27
2017-01-04T02:28:16.888Z,73.18
2017-01-04T02:28:44.725Z,73.27
2017-01-04T02:29:12.497Z,72.98
2017-01-04T02:29:40.536Z,73.08
2017-01-04T02:30:08.315Z,72.69
2017-01-04T02:30:36.096Z,72.89
2017-01-04T02:31:03.925Z,72.6
2017-01-04T02:31:31.830Z,72.69
2017-01-04T02:31:59.939Z,72.6
2017-01-04T02:32:27.695Z,72.69
2017-01-04T02:32:55.541Z,72.69
2017-01-04T02:33:23.329Z,72.79
2017-01-04T02:33:51.231Z,72.89
2017-01-04T02:34:19.148Z,72.69
2017-01-04T02:34:47.078Z,72.69
2017-01-04T02:35:14.892Z,72.69
2017-01-04T02:35:42.658Z,72.5
2017-01-04T02:36:10.461Z,73.08
2017-01-04T02:36:38.198Z,73.27
2017-01-04T02:37:06.328Z,73.18
2017-01-04T02:37:34.204Z,73.27
2017-01-04T02:38:02.022Z,73.27
2017-01-04T02:38:29.872Z,73.18
2017-01-04T02:38:57.636Z,73.18
2017-01-04T02:39:25.485Z,73.27
2017-01-04T02:39:53.312Z,72.89
2017-01-04T02:40:21.143Z,72.79
2017-01-04T02:40:48.916Z,72.98
2017-01-04T02:41:16.794Z,73.27
2017-01-04T02:41:44.717Z,73.27
2017-01-04T02:42:12.763Z,73.27
2017-01-04T02:42:40.605Z,73.08
2017-01-04T02:43:08.577Z,72.98
2017-01-04T02:43:36.387Z,73.27
2017-01-04T02:44:04.269Z,73.18
2017-01-04T02:44:32.093Z,73.08
2017-01-04T02:44:59.917Z,73.66
2017-01-04T02:45:27.716Z,73.47
2017-01-04T02:45:55.610Z,73.85
2017-01-04T02:46:23.386Z,73.47
2017-01-04T02:46:51.484Z,73.27
2017-01-04T02:47:19.389Z,72.79
2017-01-04T02:47:47.254Z,72.6
2017-01-04T02:48:15.095Z,72.79
2017-01-04T02:48:42.997Z,72.5
2017-01-04T02:49:10.783Z,72.6
2017-01-04T02:49:38.659Z,72.69
2017-01-04T02:50:06.493Z,72.89
2017-01-04T02:50:34.296Z,72.89
2017-01-04T02:51:02.108Z,72.4
2017-01-04T02:51:29.956Z,71.92
2017-01-04T02:51:57.968Z,72.21
2017-01-04T02:52:25.831Z,72.4
2017-01-04T02:52:53.585Z,72.11
2017-01-04T02:53:21.413Z,72.02
2017-01-04T02:53:49.229Z,72.11
2017-01-04T02:54:17.150Z,72.4
2017-01-04T02:54:44.981Z,72.21
2017-01-04T02:55:12.854Z,72.5
2017-01-04T02:55:40.671Z,72.4
2017-01-04T02:56:08.467Z,72.4
2017-01-04T02:56:36.331Z,73.18
2017-01-04T02:57:04.422Z,73.08
2017-01-04T02:57:32.236Z,72.4
2017-01-04T02:58:00.052Z,72.5
2017-01-04T02:58:27.808Z,73.08
2017-01-04T02:58:55.559Z,73.11
2017-01-04T02:59:23.421Z,72.79
2017-01-04T02:59:51.270Z,72.5
2017-01-04T03:00:19.157Z,72.4
2017-01-04T03:00:47.008Z,72.3
2017-01-04T03:01:14.767Z,72.3
2017-01-04T03:01:42.599Z,72.5
2017-01-04T03:02:10.593Z,72.24
2017-01-04T03:02:38.355Z,72.11
2017-01-04T03:03:06.142Z,72.69
2017-01-04T03:03:33.899Z,72.79
2017-01-04T03:04:01.682Z,72.89
2017-01-04T03:04:29.477Z,72.89
2017-01-04T03:04:57.222Z,72.89
2017-01-04T03:05:25.072Z,72.6
2017-01-04T03:05:52.858Z,72.4
2017-01-04T03:06:20.725Z,72.4
2017-01-04T03:06:48.598Z,72.4
2017-01-04T03:07:16.573Z,72.4
2017-01-04T03:07:44.450Z,72.05
2017-01-04T03:08:12.282Z,72.44
2017-01-04T03:08:40.262Z,72.4
2017-01-04T03:09:08.164Z,72.21
2017-01-04T03:09:35.930Z,72.05
2017-01-04T03:10:03.739Z,71.95
2017-01-04T03:10:31.557Z,71.86
2017-01-04T03:10:59.306Z,71.47
2017-01-04T03:11:27.162Z,71.47
2017-01-04T03:11:54.991Z,71.56
2017-01-04T03:12:23.039Z,72.02
2017-01-04T03:12:50.813Z,72.11
2017-01-04T03:13:18.606Z,72.21
2017-01-04T03:13:46.415Z,72.4
2017-01-04T03:14:14.182Z,72.44
2017-01-04T03:14:42.000Z,72.3
2017-01-04T03:15:09.824Z,72.21
2017-01-04T03:15:38.223Z,72.3
2017-01-04T03:16:05.986Z,71.82
2017-01-04T03:16:33.904Z,71.82
2017-01-04T03:17:01.712Z,72.11
2017-01-04T03:17:29.825Z,71.82
2017-01-04T03:17:57.654Z,71.86
2017-01-04T03:18:25.542Z,71.92
2017-01-04T03:18:53.379Z,72.02
2017-01-04T03:19:21.205Z,72.02
2017-01-04T03:19:49.025Z,72.21
2017-01-04T03:20:16.783Z,72.4
2017-01-04T03:20:44.558Z,72.3
2017-01-04T03:21:12.399Z,72.02
2017-01-04T03:21:40.232Z,71.92
2017-01-04T03:22:08.309Z,72.3
2017-01-04T03:22:36.124Z,72.3
2017-01-04T03:23:04.139Z,72.21
2017-01-04T03:23:32.037Z,72.21
2017-01-04T03:23:59.982Z,72.11
2017-01-04T03:24:27.800Z,72.3
2017-01-04T03:24:55.623Z,72.4
2017-01-04T03:25:23.462Z,72.6
2017-01-04T03:25:51.238Z,72.6
2017-01-04T03:26:19.071Z,72.79
2017-01-04T03:26:46.890Z,72.89
2017-01-04T03:27:14.883Z,72.98
2017-01-04T03:27:42.868Z,72.79
2017-01-04T03:28:10.667Z,72.6
2017-01-04T03:28:38.464Z,72.21
2017-01-04T03:29:06.337Z,72.3
2017-01-04T03:29:34.076Z,72.21
2017-01-04T03:30:01.856Z,72.5
2017-01-04T03:30:29.630Z,72.11
2017-01-04T03:30:57.531Z,73.18
2017-01-04T03:31:25.314Z,72.89
2017-01-04T03:31:53.201Z,72.6
2017-01-04T03:32:21.395Z,72.89
2017-01-04T03:32:49.193Z,72.89
2017-01-04T03:33:17.053Z,72.5
2017-01-04T03:33:44.837Z,72.6
2017-01-04T03:34:12.625Z,72.6
2017-01-04T03:34:40.490Z,72.89
2017-01-04T03:35:08.271Z,72.69
2017-01-04T03:35:36.049Z,72.69
2017-01-04T03:36:03.928Z,72.69
2017-01-04T03:36:31.718Z,72.69
2017-01-04T03:36:59.510Z,72.6
2017-01-04T03:37:27.501Z,73.18
2017-01-04T03:37:55.258Z,73.18
2017-01-04T03:38:23.193Z,72.89
2017-01-04T03:38:51.001Z,72.98
2017-01-04T03:39:18.905Z,72.89
2017-01-04T03:39:46.746Z,72.5
2017-01-04T03:40:14.674Z,72.02
2017-01-04T03:40:42.494Z,72.21
2017-01-04T03:41:10.342Z,72.4
2017-01-04T03:41:38.123Z,72.4
2017-01-04T03:42:05.982Z,72.3
2017-01-04T03:42:33.943Z,71.82
2017-01-04T03:43:01.731Z,71.72
2017-01-04T03:43:29.548Z,71.82
2017-01-04T03:43:57.293Z,72.3
2017-01-04T03:44:25.274Z,71.92
2017-01-04T03:44:53.093Z,72.11
2017-01-04T03:45:20.982Z,71.92
2017-01-04T03:45:48.824Z,71.72
2017-01-04T03:46:16.651Z,72.3
2017-01-04T03:46:44.435Z,72.11
2017-01-04T03:47:12.258Z,71.95
2017-01-04T03:47:40.206Z,71.62
2017-01-04T03:48:08.010Z,71.82
2017-01-04T03:48:35.801Z,71.82
2017-01-04T03:49:03.676Z,71.92
2017-01-04T03:49:31.479Z,72.21
2017-01-04T03:49:59.197Z,72.11
2017-01-04T03:50:27.014Z,72.02
2017-01-04T03:50:54.945Z,71.92
2017-01-04T03:51:22.722Z,72.11
2017-01-04T03:51:50.616Z,72.21
2017-01-04T03:52:18.493Z,72.02
2017-01-04T03:52:46.537Z,71.72
2017-01-04T03:53:14.379Z,72.21
2017-01-04T03:53:42.198Z,72.11
2017-01-04T03:54:09.980Z,72.02
2017-01-04T03:54:37.768Z,71.95
2017-01-04T03:55:05.598Z,72.11
2017-01-04T03:55:33.424Z,72.15
2017-01-04T03:56:01.186Z,72.3
2017-01-04T03:56:28.969Z,71.72
2017-01-04T03:56:56.826Z,71.92
2017-01-04T03:57:24.676Z,72.4
2017-01-04T03:57:52.811Z,72.3
2017-01-04T03:58:20.591Z,72.5
2017-01-04T03:58:48.358Z,72.69
2017-01-04T03:59:16.295Z,72.69
2017-01-04T03:59:44.079Z,72.79
2017-01-04T04:00:11.864Z,72.69
2017-01-04T04:00:39.676Z,72.79
2017-01-04T04:01:07.522Z,72.69
2017-01-04T04:01:35.311Z,72.69
2017-01-04T04:02:03.179Z,73.08
2017-01-04T04:02:31.079Z,72.79
2017-01-04T04:02:59.119Z,72.98
2017-01-04T04:03:26.893Z,72.69
2017-01-04T04:03:54.729Z,72.4
2017-01-04T04:04:22.588Z,72.79
2017-01-04T04:04:50.336Z,73.18
2017-01-04T04:05:18.138Z,72.6
2017-01-04T04:05:45.931Z,72.98
2017-01-04T04:06:13.710Z,72.79
2017-01-04T04:06:41.541Z,72.69
2017-01-04T04:07:09.386Z,72.69
2017-01-04T04:07:37.281Z,72.79
2017-01-04T04:08:05.293Z,72.98
2017-01-04T04:08:33.155Z,73.27
2017-01-04T04:09:00.958Z,73.33
2017-01-04T04:09:28.759Z,73.27
2017-01-04T04:09:56.612Z,73.53
2017-01-04T04:10:24.439Z,73.14
2017-01-04T04:10:52.244Z,73.24
2017-01-04T04:11:20.062Z,73.37
2017-01-04T04:11:47.860Z,73.27
2017-01-04T04:12:15.787Z,73.57
2017-01-04T04:12:43.824Z,73.47
2017-01-04T04:13:11.700Z,73.37
2017-01-04T04:13:39.527Z,73.47
2017-01-04T04:14:07.436Z,72.79
2017-01-04T04:14:35.274Z,72.79
2017-01-04T04:15:03.182Z,72.5
2017-01-04T04:15:31.051Z,72.79
2017-01-04T04:15:58.819Z,72.79
2017-01-04T04:16:26.746Z,72.79
2017-01-04T04:16:54.624Z,72.4
2017-01-04T04:17:22.535Z,72.89
2017-01-04T04:17:50.490Z,72.79
2017-01-04T04:18:18.371Z,72.69
2017-01-04T04:18:46.211Z,72.6
2017-01-04T04:19:14.128Z,72.89
2017-01-04T04:19:41.905Z,72.6
2017-01-04T04:20:09.694Z,72.89
2017-01-04T04:20:37.470Z,73.08
2017-01-04T04:21:05.234Z,72.89
2017-01-04T04:21:33.072Z,73.18
2017-01-04T04:22:00.916Z,72.4
2017-01-04T04:22:28.812Z,72.4
2017-01-04T04:22:56.789Z,72.5
2017-01-04T04:23:24.618Z,72.6
2017-01-04T04:23:52.496Z,72.79
2017-01-04T04:24:20.286Z,72.69
2017-01-04T04:24:48.031Z,72.79
2017-01-04T04:25:15.914Z,73.18
2017-01-04T04:25:43.698Z,72.89
2017-01-04T04:26:11.520Z,72.69
2017-01-04T04:26:39.279Z,72.89
2017-01-04T04:27:07.131Z,72.89
2017-01-04T04:27:35.000Z,72.79
2017-01-04T04:28:02.967Z,72.69
2017-01-04T04:28:30.869Z,72.69
2017-01-04T04:28:58.676Z,72.69
2017-01-04T04:29:26.481Z,72.89
2017-01-04T04:29:54.301Z,72.69
2017-01-04T04:30:22.110Z,72.5
2017-01-04T04:30:50.004Z,72.89
2017-01-04T04:31:17.806Z,72.89
2017-01-04T04:31:45.694Z,73.08
2017-01-04T04:32:13.509Z,72.89
2017-01-04T04:32:41.378Z,72.79
2017-01-04T04:33:09.341Z,72.89
2017-01-04T04:33:37.141Z,72.89
2017-01-04T04:34:04.948Z,72.69
2017-01-04T04:34:32.844Z,73.18
2017-01-04T04:35:00.626Z,73.18
2017-01-04T04:35:28.447Z,73.47
2017-01-04T04:35:56.256Z,73.08
2017-01-04T04:36:24.174Z,72.69
2017-01-04T04:36:52.060Z,73.37
2017-01-04T04:37:19.826Z,73.37
2017-01-04T04:37:47.617Z,73.47
2017-01-04T04:38:15.623Z,73.27
2017-01-04T04:38:43.446Z,73.47
2017-01-04T04:39:11.332Z,73.33
2017-01-04T04:39:39.143Z,73.27
2017-01-04T04:40:06.996Z,73.37
2017-01-04T04:40:34.848Z,73.33
2017-01-04T04:41:02.648Z,73.63
2017-01-04T04:41:30.498Z,73.82
2017-01-04T04:41:58.263Z,73.72
2017-01-04T04:42:26.045Z,73.43
2017-01-04T04:42:53.812Z,73.91
2017-01-04T04:43:21.848Z,74.01
2017-01-04T04:43:49.799Z,74.01
2017-01-04T04:44:17.651Z,74.3
2017-01-04T04:44:45.535Z,74.21
2017-01-04T04:45:13.404Z,74.3
2017-01-04T04:45:41.347Z,74.21
2017-01-04T04:46:09.193Z,73.82
2017-01-04T04:46:37.142Z,73.63
2017-01-04T04:47:05.299Z,73.63
2017-01-04T04:47:33.215Z,74.11
2017-01-04T04:48:01.256Z,74.3
2017-01-04T04:48:29.036Z,74.3
2017-01-04T04:48:56.986Z,74.79
2017-01-04T04:49:24.748Z,74.59
2017-01-04T04:49:52.668Z,74.88
2017-01-04T04:50:20.431Z,74.88
2017-01-04T04:50:48.216Z,74.88
2017-01-04T04:51:16.132Z,75.17
2017-01-04T04:51:43.946Z,74.88
2017-01-04T04:52:11.779Z,74.79
2017-01-04T04:52:39.554Z,74.79
2017-01-04T04:53:07.598Z,75.37
2017-01-04T04:53:35.490Z,75.04
2017-01-04T04:54:03.294Z,75.04
2017-01-04T04:54:31.098Z,74.88
2017-01-04T04:54:58.889Z,75.13
2017-01-04T04:55:26.770Z,75.33
2017-01-04T04:55:54.529Z,74.75
2017-01-04T04:56:22.472Z,75.43
2017-01-04T04:56:50.271Z,75.52
2017-01-04T04:57:18.107Z,75.62
2017-01-04T04:57:45.945Z,75.04
2017-01-04T04:58:13.949Z,75.23
2017-01-04T04:58:41.796Z,75.23
2017-01-04T04:59:09.590Z,75.33
2017-01-04T04:59:37.391Z,75.43
2017-01-04T05:00:05.215Z,75.43
2017-01-04T05:00:33.043Z,75.04
2017-01-04T05:01:00.824Z,75.23
2017-01-04T05:01:28.617Z,75.04
2017-01-04T05:01:56.442Z,75.13
2017-01-04T05:02:24.262Z,75.13
2017-01-04T05:02:52.061Z,74.85
2017-01-04T05:03:20.102Z,75.13
2017-01-04T05:03:48.020Z,75.13
2017-01-04T05:04:15.800Z,75.33
2017-01-04T05:04:43.608Z,75.33
2017-01-04T05:05:11.496Z,75.04
2017-01-04T05:05:39.317Z,75.33
2017-01-04T05:06:07.113Z,74.85
2017-01-04T05:06:34.907Z,75.33
2017-01-04T05:07:02.749Z,75.04
2017-01-04T05:07:30.583Z,75.43
2017-01-04T05:07:58.398Z,74.85
2017-01-04T05:08:26.460Z,75.13
2017-01-04T05:08:54.229Z,74.94
2017-01-04T05:09:22.104Z,74.94
2017-01-04T05:09:49.980Z,75.04
2017-01-04T05:10:17.846Z,75.23
2017-01-04T05:10:45.714Z,75.04
2017-01-04T05:11:13.495Z,75.33
2017-01-04T05:11:41.444Z,75.07
2017-01-04T05:12:09.258Z,74.94
2017-01-04T05:12:37.075Z,74.79
2017-01-04T05:13:04.874Z,75.43
2017-01-04T05:13:32.885Z,75.81
2017-01-04T05:14:00.721Z,74.85
2017-01-04T05:14:28.493Z,75.13
2017-01-04T05:14:56.386Z,74.94
2017-01-04T05:15:24.164Z,74.94
2017-01-04T05:15:51.956Z,75.07
2017-01-04T05:16:19.835Z,74.65
2017-01-04T05:16:47.665Z,74.27
2017-01-04T05:17:15.459Z,74.75
2017-01-04T05:17:43.283Z,74.36
2017-01-04T05:18:11.289Z,74.55
2017-01-04T05:18:39.187Z,74.65
2017-01-04T05:19:06.969Z,74.94
2017-01-04T05:19:34.793Z,74.55
2017-01-04T05:20:02.606Z,75.17
2017-01-04T05:20:30.427Z,75.04
2017-01-04T05:20:58.198Z,74.85
2017-01-04T05:21:26.082Z,74.85
2017-01-04T05:21:53.882Z,75.04
2017-01-04T05:22:21.731Z,74.55
2017-01-04T05:22:49.538Z,74.65
2017-01-04T05:23:17.575Z,74.65
2017-01-04T05:23:45.426Z,75.13
2017-01-04T05:24:13.303Z,74.85
2017-01-04T05:24:41.207Z,74.85
2017-01-04T05:25:08.977Z,75.04
2017-01-04T05:25:36.818Z,74.36
2017-01-04T05:26:04.717Z,74.55
2017-01-04T05:26:32.487Z,74.4
2017-01-04T05:27:00.284Z,73.97
2017-01-04T05:27:28.156Z,73.91
2017-01-04T05:27:55.923Z,74.01
2017-01-04T05:28:23.998Z,74.27
2017-01-04T05:28:51.801Z,74.17
2017-01-04T05:29:19.617Z,74.36
2017-01-04T05:29:47.424Z,74.98
2017-01-04T05:30:15.200Z,74.88
2017-01-04T05:30:43.078Z,74.36
2017-01-04T05:31:11.006Z,74.75
2017-01-04T05:31:38.784Z,74.59
2017-01-04T05:32:06.578Z,74.3
2017-01-04T05:32:34.380Z,74.59
2017-01-04T05:33:02.334Z,74.59
2017-01-04T05:33:30.338Z,74.01
2017-01-04T05:33:58.166Z,74.3
2017-01-04T05:34:25.924Z,74.3
2017-01-04T05:34:53.662Z,73.82
2017-01-04T05:35:21.489Z,74.27
2017-01-04T05:35:49.341Z,74.3
2017-01-04T05:36:17.171Z,74.17
2017-01-04T05:36:44.966Z,73.91
2017-01-04T05:37:12.761Z,74.11
2017-01-04T05:37:40.637Z,74.17
2017-01-04T05:38:08.437Z,74.07
2017-01-04T05:38:36.467Z,74.07
2017-01-04T05:39:04.310Z,73.97
2017-01-04T05:39:32.158Z,74.36
2017-01-04T05:39:59.980Z,73.91
2017-01-04T05:40:27.751Z,74.11
2017-01-04T05:40:55.516Z,73.49
2017-01-04T05:41:23.312Z,73.78
2017-01-04T05:41:51.301Z,73.49
2017-01-04T05:42:19.163Z,73.24
2017-01-04T05:42:47.065Z,73.04
2017-01-04T05:43:14.928Z,73.33
2017-01-04T05:43:42.998Z,73.33
2017-01-04T05:44:10.804Z,73.3
2017-01-04T05:44:38.756Z,73.59
2017-01-04T05:45:06.529Z,73.59
2017-01-04T05:45:34.361Z,74.01
2017-01-04T05:46:02.296Z,74.3
2017-01-04T05:46:30.086Z,74.17
2017-01-04T05:46:57.964Z,74.07
2017-01-04T05:47:25.813Z,73.97
2017-01-04T05:47:53.648Z,74.36
2017-01-04T05:48:21.475Z,73.88
2017-01-04T05:48:49.650Z,73.39
2017-01-04T05:49:17.576Z,73.3
2017-01-04T05:49:45.363Z,73.49
2017-01-04T05:50:13.232Z,73.68
2017-01-04T05:50:41.016Z,73.59
2017-01-04T05:51:08.934Z,73.82
2017-01-04T05:51:36.740Z,73.14
2017-01-04T05:52:04.568Z,72.95
2017-01-04T05:52:32.429Z,72.85
2017-01-04T05:53:00.245Z,73.04
2017-01-04T05:53:28.170Z,72.33
2017-01-04T05:53:56.200Z,72.62
2017-01-04T05:54:24.052Z,72.81
2017-01-04T05:54:51.956Z,72.85
2017-01-04T05:55:19.856Z,72.42
2017-01-04T05:55:47.709Z,72.72
2017-01-04T05:56:15.600Z,72.52
2017-01-04T05:56:43.414Z,72.42
2017-01-04T05:57:11.224Z,72.42
2017-01-04T05:57:39.013Z,72.72
2017-01-04T05:58:06.828Z,72.91
2017-01-04T05:58:34.875Z,73.2
2017-01-04T05:59:02.655Z,73.2
2017-01-04T05:59:30.420Z,72.91
2017-01-04T05:59:58.210Z,72.75
2017-01-04T06:00:26.058Z,72.72